Map

Track Data

SID SEASON NUMBER BASIN SUBBASIN NAME ISO_TIME NATURE LAT LON WMO_WIND WMO_PRES WMO_AGENCY TRACK_TYPE DIST2LAND LANDFALL IFLAG USA_AGENCY USA_ATCF_ID USA_LAT USA_LON USA_RECORD USA_STATUS USA_WIND USA_PRES USA_SSHS USA_R34_NE USA_R34_SE USA_R34_SW USA_R34_NW USA_R50_NE USA_R50_SE USA_R50_SW USA_R50_NW USA_R64_NE USA_R64_SE USA_R64_SW USA_R64_NW USA_POCI USA_ROCI USA_RMW USA_EYE TOKYO_LAT TOKYO_LON TOKYO_GRADE TOKYO_WIND TOKYO_PRES TOKYO_R50_DIR TOKYO_R50_LONG TOKYO_R50_SHORT TOKYO_R30_DIR TOKYO_R30_LONG TOKYO_R30_SHORT TOKYO_LAND CMA_LAT CMA_LON CMA_CAT CMA_WIND CMA_PRES HKO_LAT HKO_LON HKO_CAT HKO_WIND HKO_PRES NEWDELHI_LAT NEWDELHI_LON NEWDELHI_GRADE NEWDELHI_WIND NEWDELHI_PRES NEWDELHI_CI NEWDELHI_DP NEWDELHI_POCI REUNION_LAT REUNION_LON REUNION_TYPE REUNION_WIND REUNION_PRES REUNION_TNUM REUNION_CI REUNION_RMW REUNION_R34_NE REUNION_R34_SE REUNION_R34_SW REUNION_R34_NW REUNION_R50_NE REUNION_R50_SE REUNION_R50_SW REUNION_R50_NW REUNION_R64_NE REUNION_R64_SE REUNION_R64_SW REUNION_R64_NW BOM_LAT BOM_LON BOM_TYPE BOM_WIND BOM_PRES BOM_TNUM BOM_CI BOM_RMW BOM_R34_NE BOM_R34_SE BOM_R34_SW BOM_R34_NW BOM_R50_NE BOM_R50_SE BOM_R50_SW BOM_R50_NW BOM_R64_NE BOM_R64_SE BOM_R64_SW BOM_R64_NW BOM_ROCI BOM_POCI BOM_EYE BOM_POS_METHOD BOM_PRES_METHOD NADI_LAT NADI_LON NADI_CAT NADI_WIND NADI_PRES WELLINGTON_LAT WELLINGTON_LON WELLINGTON_WIND WELLINGTON_PRES DS824_LAT DS824_LON DS824_STAGE DS824_WIND DS824_PRES TD9636_LAT TD9636_LON TD9636_STAGE TD9636_WIND TD9636_PRES TD9635_LAT TD9635_LON TD9635_WIND TD9635_PRES TD9635_ROCI NEUMANN_LAT NEUMANN_LON NEUMANN_CLASS NEUMANN_WIND NEUMANN_PRES MLC_LAT MLC_LON MLC_CLASS MLC_WIND MLC_PRES USA_GUST BOM_GUST BOM_GUST_PER REUNION_GUST REUNION_GUST_PER USA_SEAHGT USA_SEARAD_NE USA_SEARAD_SE USA_SEARAD_SW USA_SEARAD_NW STORM_SPEED STORM_DIR
1854253N35280 1854 10 NA NA NOT_NAMED 1854-09-10 06:00:00 TS 35.4000 -80.0000 spur-other 0 0 _____________O -1 35.4000 -80.0000 TS 40 15 55
1854253N35280 1854 10 NA NA NOT_NAMED 1854-09-10 09:00:00 TS 35.8353 -79.2312 spur-other 0 0 _____________P -1 35.8432 -79.3121 TS 45 14 55
1854253N35280 1854 10 NA NA NOT_NAMED 1854-09-10 12:00:00 TS 36.2000 -78.6000 spur-other 0 0 _____________O -1 36.2000 -78.6000 TS 50 13 62
1854253N35280 1854 10 NA NA NOT_NAMED 1854-09-10 15:00:00 TS 36.4222 -77.8561 spur-other 0 0 _____________P -1 36.4222 -77.8561 TS 50 13 72
1854253N35280 1854 10 NA NA NOT_NAMED 1854-09-10 18:00:00 TS 36.6000 -77.1000 spur-other 0 0 _____________O -1 36.6000 -77.1000 TS 50 13 71
1854253N35280 1854 10 NA NA NOT_NAMED 1854-09-10 21:00:00 TS 36.8420 -76.3497 spur-other 0 0 _____________P -1 36.8420 -76.3497 TS 52 13 67
1854253N35280 1854 10 NA NA NOT_NAMED 1854-09-11 00:00:00 TS 37.1000 -75.6000 spur-other 26 26 _____________O -1 37.1000 -75.6000 TS 55 13 67
1854253N35280 1854 10 NA NA NOT_NAMED 1854-09-11 03:00:00 TS 37.3569 -74.8572 spur-other 69 69 _____________P -1 37.3569 -74.8572 TS 55 13 67
1854253N35280 1854 10 NA NA NOT_NAMED 1854-09-11 06:00:00 TS 37.6000 -74.1000 spur-other 117 117 _____________O -1 37.6000 -74.1000 TS 55 12 69
1854253N35280 1854 10 NA NA NOT_NAMED 1854-09-11 09:00:00 TS 37.7968 -73.4105 spur-other 158 158 _____________P -1 37.7968 -73.4105 TS 57 13 72
1854253N35280 1854 10 NA NA NOT_NAMED 1854-09-11 12:00:00 TS 38.0000 -72.5000 spur-other 226 226 _____________O -1 38.0000 -72.5000 TS 60 18 76
1854253N35280 1854 10 NA NA NOT_NAMED 1854-09-11 15:00:00 TS 38.2424 -71.1421 spur-other 311 306 _____________P -1 38.2424 -71.1421 TS 60 24 78
1854253N35280 1854 10 NA NA NOT_NAMED 1854-09-11 18:00:00 TS 38.5000 -69.5000 spur-other 349 349 _____________O -1 38.5000 -69.5000 TS 60 27 80
1854253N35280 1854 10 NA NA NOT_NAMED 1854-09-11 21:00:00 TS 38.7265 -67.7848 spur-other 382 381 _____________P -1 38.7265 -67.7848 TS 62 28 80
1854253N35280 1854 10 NA NA NOT_NAMED 1854-09-12 00:00:00 TS 39.0000 -66.0000 spur-other 452 452 _____________O -1 39.0000 -66.0000 HU 65 28 76
1854253N35280 1854 10 NA NA NOT_NAMED 1854-09-12 03:00:00 TS 39.4199 -64.2531 spur-other 463 453 _____________P -1 39.4199 -64.2531 HU 65 28 74
1854253N35280 1854 10 NA NA NOT_NAMED 1854-09-12 06:00:00 TS 39.8000 -62.5000 spur-other 472 472 _____________O -1 39.8000 -62.5000 HU 65 27 79
1854253N35280 1854 10 NA NA NOT_NAMED 1854-09-12 09:00:00 TS 39.9498 -60.7467 spur-other 550 546 _____________P -1 39.9498 -60.7467 HU 65 27 86
1854253N35280 1854 10 NA NA NOT_NAMED 1854-09-12 12:00:00 TS 40.0000 -59.0000 spur-other 603 603 _____________O -1 40.0000 -59.0000 HU 65 27 87
1854253N35280 1854 10 NA NA NOT_NAMED 1854-09-12 15:00:00 TS 40.0777 -57.2434 spur-other 649 649 _____________P -1 40.0777 -57.2434 HU 65 27 88
1854253N35280 1854 10 NA NA NOT_NAMED 1854-09-12 18:00:00 TS 40.1000 -55.5000 spur-other 727 723 _____________O -1 40.1000 -55.5000 HU 65 26 91
1854253N35280 1854 10 NA NA NOT_NAMED 1854-09-12 21:00:00 TS 40.0471 -53.8464 spur-other 733 733 _____________P -1 40.0471 -53.8464 HU 65 26 94
1854253N35280 1854 10 NA NA NOT_NAMED 1854-09-13 00:00:00 TS 39.9000 -52.1000 spur-other 750 750 _____________O -1 39.9000 -52.1000 HU 65 29 99
1854253N35280 1854 10 NA NA NOT_NAMED 1854-09-13 03:00:00 TS 39.6069 -50.0914 spur-other 817 817 _____________P -1 39.6069 -50.0914 HU 65 32 101
1854253N35280 1854 10 NA NA NOT_NAMED 1854-09-13 06:00:00 TS 39.3000 -48.0000 spur-other 914 914 _____________O -1 39.3000 -48.0000 HU 65 32 100
1854253N35280 1854 10 NA NA NOT_NAMED 1854-09-13 09:00:00 TS 39.0245 -46.0239 spur-other 1027 1027 _____________P -1 39.0245 -46.0239 HU 65 31 96
1854253N35280 1854 10 NA NA NOT_NAMED 1854-09-13 12:00:00 TS 39.0000 -44.0000 spur-other 1127 1127 _____________O -1 39.0000 -44.0000 HU 65 33 85
1854253N35280 1854 10 NA NA NOT_NAMED 1854-09-13 15:00:00 TS 39.3034 -41.7835 spur-other 1228 1228 _____________P -1 39.3034 -41.7835 HU 65 36 74
1854253N35280 1854 10 NA NA NOT_NAMED 1854-09-13 18:00:00 TS 40.0000 -39.5000 spur-other 1320 1320 _____________O -1 40.0000 -39.5000 HU 65 39 64
1854253N35280 1854 10 NA NA NOT_NAMED 1854-09-13 21:00:00 TS 41.0262 -37.2492 spur-other 1412 1412 _____________P -1 41.0262 -37.2492 HU 62 41 56
1854253N35280 1854 10 NA NA NOT_NAMED 1854-09-14 00:00:00 ET 42.3000 -35.0000 spur-other 1492 1492 _____________O -1 42.3000 -35.0000 EX 60 41 55
1854253N35280 1854 10 NA NA NOT_NAMED 1854-09-14 03:00:00 ET 43.4009 -32.7418 spur-other 1606 1606 _____________P -1 43.4009 -32.7418 EX 60 42 52
1854253N35280 1854 10 NA NA NOT_NAMED 1854-09-14 06:00:00 ET 44.9000 -30.5000 spur-other 1657 1390 _____________O -1 44.9000 -30.5000 EX 60 49 41
1854253N35280 1854 10 NA NA NOT_NAMED 1854-09-14 09:00:00 ET 47.1379 -28.1968 spur-other 1378 1101 _____________P -1 47.1379 -28.1968 EX 60 59 34
1854253N35280 1854 10 NA NA NOT_NAMED 1854-09-14 12:00:00 ET 49.8000 -25.7000 spur-other 1087 _____________O -1 49.8000 -25.7000 EX 60 62 31

About IBTrACS Database

This database is a web-friendly format of International Best Track Archive for Climate Stewardship (IBTrACS), a global best track data archive curated by NOAA dating back to 1842.

Updated: 2021-10-08